createdAt,value
2022-10-06T00:00:53.170Z,8.85
2022-10-06T00:03:23.187Z,8.92
2022-10-06T00:05:50.988Z,8.85
2022-10-06T00:08:18.888Z,8.81
2022-10-06T00:10:46.066Z,8.71
2022-10-06T00:13:12.907Z,8.67
2022-10-06T00:15:40.092Z,8.63
2022-10-06T00:18:06.900Z,8.62
2022-10-06T00:20:33.665Z,8.56
2022-10-06T00:23:00.751Z,8.58
2022-10-06T00:25:28.284Z,8.61
2022-10-06T00:27:56.080Z,8.55
2022-10-06T00:30:27.348Z,8.52
2022-10-06T00:32:57.364Z,8.42
2022-10-06T00:35:25.952Z,8.43
2022-10-06T00:37:52.931Z,8.37
2022-10-06T00:40:20.482Z,8.30
2022-10-06T00:43:05.838Z,8.34
2022-10-06T00:45:45.190Z,8.32
2022-10-06T00:48:21.962Z,8.31
2022-10-06T00:50:48.889Z,8.24
2022-10-06T00:53:17.047Z,8.30
2022-10-06T00:55:43.951Z,8.29
2022-10-06T00:58:12.332Z,8.32
2022-10-06T01:00:42.905Z,8.24
2022-10-06T01:03:19.185Z,8.23
2022-10-06T01:05:51.061Z,8.22
2022-10-06T01:08:18.493Z,8.12
2022-10-06T01:10:45.657Z,8.15
2022-10-06T01:13:13.399Z,8.00
2022-10-06T01:15:48.403Z,8.00
2022-10-06T01:18:18.778Z,7.97
2022-10-06T01:20:52.800Z,7.97
2022-10-06T01:23:20.168Z,7.96
2022-10-06T01:25:47.371Z,7.92
2022-10-06T01:28:15.100Z,7.86
2022-10-06T01:30:52.926Z,7.90
2022-10-06T01:33:22.344Z,7.90
2022-10-06T01:35:52.325Z,7.86
2022-10-06T01:38:20.499Z,7.86
2022-10-06T01:40:52.283Z,7.82
2022-10-06T01:43:19.538Z,7.79
2022-10-06T01:45:53.865Z,7.80
2022-10-06T01:48:21.062Z,7.79
2022-10-06T01:50:48.118Z,7.79
2022-10-06T01:53:15.273Z,7.78
2022-10-06T01:55:42.026Z,7.78
2022-10-06T01:58:11.438Z,7.70
2022-10-06T02:00:41.606Z,7.71
2022-10-06T02:03:08.771Z,7.57
2022-10-06T02:05:35.678Z,7.51
2022-10-06T02:08:03.058Z,7.56
2022-10-06T02:10:33.177Z,7.48
2022-10-06T02:12:59.880Z,7.47
2022-10-06T02:15:28.255Z,7.48
2022-10-06T02:17:55.904Z,7.45
2022-10-06T02:20:27.440Z,7.38
2022-10-06T02:22:54.053Z,7.36
2022-10-06T02:25:20.818Z,7.32
2022-10-06T02:27:48.333Z,7.31
2022-10-06T02:30:16.855Z,7.31
2022-10-06T02:32:46.230Z,7.39
2022-10-06T02:35:13.686Z,7.34
2022-10-06T02:37:44.151Z,7.28
2022-10-06T02:40:16.681Z,7.26
2022-10-06T02:42:46.113Z,7.22
2022-10-06T02:45:17.233Z,7.10
2022-10-06T02:47:44.810Z,7.11
2022-10-06T02:50:13.758Z,7.06
2022-10-06T02:52:42.832Z,7.08
2022-10-06T02:55:11.050Z,7.09
2022-10-06T02:57:38.014Z,7.10
2022-10-06T03:00:07.745Z,7.09
2022-10-06T03:02:34.730Z,7.06
2022-10-06T03:05:02.186Z,7.08
2022-10-06T03:07:28.905Z,7.01
2022-10-06T03:09:55.654Z,7.00
2022-10-06T03:12:24.500Z,7.02
2022-10-06T03:14:52.211Z,7.06
2022-10-06T03:17:19.738Z,7.04
2022-10-06T03:19:52.055Z,7.03
2022-10-06T03:22:19.051Z,7.05
2022-10-06T03:24:52.677Z,7.02
2022-10-06T03:27:21.409Z,6.92
2022-10-06T03:29:49.249Z,6.88
2022-10-06T03:32:16.123Z,6.86
2022-10-06T03:34:43.751Z,6.83
2022-10-06T03:37:13.490Z,6.87
2022-10-06T03:39:40.169Z,6.86
2022-10-06T03:42:07.383Z,6.85
2022-10-06T03:44:37.129Z,6.89
2022-10-06T03:47:04.817Z,6.87
2022-10-06T03:49:32.726Z,6.84
2022-10-06T03:51:59.378Z,6.82
2022-10-06T03:54:30.504Z,6.82
2022-10-06T03:56:57.151Z,6.74
2022-10-06T03:59:24.271Z,6.70
2022-10-06T04:01:53.077Z,6.75
2022-10-06T04:04:26.718Z,6.73
2022-10-06T04:06:59.068Z,6.74
2022-10-06T04:09:26.042Z,6.71
2022-10-06T04:11:53.266Z,6.67
2022-10-06T04:14:20.911Z,6.68
2022-10-06T04:16:50.174Z,6.74
2022-10-06T04:19:22.380Z,6.79
2022-10-06T04:21:53.458Z,6.79
2022-10-06T04:24:23.591Z,6.72
2022-10-06T04:26:52.615Z,6.69
2022-10-06T04:29:21.170Z,6.64
2022-10-06T04:31:57.225Z,6.74
2022-10-06T04:34:35.654Z,6.78
2022-10-06T04:37:04.075Z,6.70
2022-10-06T04:39:30.901Z,6.66
2022-10-06T04:41:58.212Z,6.66
2022-10-06T04:44:29.006Z,6.63
2022-10-06T04:47:00.688Z,6.59
2022-10-06T04:49:27.718Z,6.61
2022-10-06T04:51:56.182Z,6.61
2022-10-06T04:54:23.178Z,6.61
2022-10-06T04:56:54.462Z,6.66
2022-10-06T04:59:43.816Z,6.65
2022-10-06T05:02:12.032Z,6.71
2022-10-06T05:04:39.675Z,6.69
2022-10-06T05:07:07.318Z,6.74
2022-10-06T05:09:34.531Z,6.77
2022-10-06T05:12:02.630Z,6.72
2022-10-06T05:14:29.372Z,6.70
2022-10-06T05:16:56.147Z,6.70
2022-10-06T05:19:23.250Z,6.79
2022-10-06T05:21:49.973Z,6.74
2022-10-06T05:24:20.527Z,6.85
2022-10-06T05:26:49.579Z,6.88
2022-10-06T05:29:16.643Z,6.92
2022-10-06T05:31:44.970Z,6.94
2022-10-06T05:34:13.882Z,6.89
2022-10-06T05:36:40.633Z,6.98
2022-10-06T05:39:10.597Z,7.01
2022-10-06T05:41:43.623Z,7.09
2022-10-06T05:44:11.636Z,7.16
2022-10-06T05:46:40.129Z,7.21
2022-10-06T05:49:10.272Z,7.34
2022-10-06T05:51:40.532Z,7.43
2022-10-06T05:54:14.406Z,7.54
2022-10-06T05:56:41.562Z,7.64
2022-10-06T05:59:08.780Z,7.73
2022-10-06T06:01:39.845Z,7.82
2022-10-06T06:04:14.287Z,7.89
2022-10-06T06:06:49.019Z,7.98
2022-10-06T06:09:21.331Z,8.03
2022-10-06T06:11:53.087Z,8.12
2022-10-06T06:14:43.392Z,8.28
2022-10-06T06:17:13.783Z,8.34
2022-10-06T06:19:40.546Z,8.46
2022-10-06T06:22:08.347Z,8.56
2022-10-06T06:24:39.018Z,8.70
2022-10-06T06:27:05.843Z,8.99
2022-10-06T06:29:32.671Z,9.85
2022-10-06T06:31:59.438Z,10.70
2022-10-06T06:34:27.442Z,11.16
2022-10-06T06:37:02.335Z,11.45
2022-10-06T06:39:34.243Z,12.42
2022-10-06T06:42:02.112Z,12.97
2022-10-06T06:44:39.195Z,13.23
2022-10-06T06:47:13.479Z,13.20
2022-10-06T06:49:40.643Z,13.10
2022-10-06T06:52:08.991Z,13.28
2022-10-06T06:54:43.111Z,13.41
2022-10-06T06:57:14.827Z,12.82
2022-10-06T06:59:41.487Z,12.58
2022-10-06T07:02:11.909Z,12.61
2022-10-06T07:04:43.966Z,12.30
2022-10-06T07:07:14.240Z,12.16
2022-10-06T07:09:41.754Z,11.91
2022-10-06T07:12:11.453Z,11.79
2022-10-06T07:15:01.629Z,11.79
2022-10-06T07:17:48.996Z,11.74
2022-10-06T07:20:35.169Z,11.65
2022-10-06T07:23:20.582Z,11.77
2022-10-06T07:25:47.411Z,11.87
2022-10-06T07:28:16.981Z,11.94
2022-10-06T07:30:44.847Z,12.11
2022-10-06T07:33:15.801Z,12.63
2022-10-06T07:35:45.126Z,13.02
2022-10-06T07:38:13.506Z,12.84
2022-10-06T07:41:14.516Z,13.16
2022-10-06T07:43:33.314Z,13.59
2022-10-06T07:46:01.204Z,13.53
2022-10-06T07:48:32.494Z,13.65
2022-10-06T07:51:07.293Z,14.53
2022-10-06T07:53:37.447Z,15.57
2022-10-06T07:56:20.714Z,17.49
2022-10-06T07:58:51.731Z,19.41
2022-10-06T08:01:20.844Z,21.24
2022-10-06T08:03:50.883Z,22.80
2022-10-06T08:06:19.317Z,24.13
2022-10-06T08:08:51.832Z,25.10
2022-10-06T08:11:20.976Z,25.75
2022-10-06T08:13:51.832Z,25.02
2022-10-06T08:16:21.393Z,25.79
2022-10-06T08:18:53.409Z,26.49
2022-10-06T08:21:29.677Z,27.23
2022-10-06T08:23:57.777Z,27.40
2022-10-06T08:26:26.369Z,28.13
2022-10-06T08:28:57.502Z,28.55
2022-10-06T08:31:24.521Z,28.85
2022-10-06T08:33:56.671Z,29.19
2022-10-06T08:36:30.853Z,29.49
2022-10-06T08:38:58.574Z,29.03
2022-10-06T08:41:28.779Z,28.48
2022-10-06T08:44:18.552Z,28.49
2022-10-06T08:46:53.154Z,28.62
2022-10-06T08:49:22.341Z,28.42
2022-10-06T08:52:17.291Z,28.16
2022-10-06T08:54:56.159Z,27.96
2022-10-06T08:57:34.757Z,28.38
2022-10-06T09:00:04.103Z,26.98
2022-10-06T09:02:35.377Z,27.94
2022-10-06T09:05:06.224Z,27.83
2022-10-06T09:07:48.471Z,28.26
2022-10-06T09:10:41.194Z,28.58
2022-10-06T09:13:22.174Z,29.03
2022-10-06T09:15:55.947Z,29.08
2022-10-06T09:18:56.449Z,30.53
2022-10-06T09:21:35.930Z,30.71
2022-10-06T09:24:10.827Z,31.84
2022-10-06T09:26:44.101Z,31.87
2022-10-06T09:29:11.689Z,31.99
2022-10-06T09:31:42.204Z,31.62
2022-10-06T09:34:08.843Z,32.49
2022-10-06T09:37:03.240Z,33.01
2022-10-06T09:39:37.022Z,31.87
2022-10-06T09:42:21.099Z,32.03
2022-10-06T09:44:56.881Z,31.45
2022-10-06T09:47:37.150Z,32.28
2022-10-06T09:50:14.501Z,32.58
2022-10-06T09:53:05.939Z,33.38
2022-10-06T09:55:39.261Z,33.26
2022-10-06T09:58:24.194Z,33.97
2022-10-06T10:01:00.473Z,33.38
2022-10-06T10:03:51.463Z,33.87
2022-10-06T10:06:35.183Z,33.47
2022-10-06T10:09:29.100Z,34.55
2022-10-06T10:12:27.864Z,34.76
2022-10-06T10:15:16.207Z,35.22
2022-10-06T10:17:49.248Z,34.49
2022-10-06T10:20:28.340Z,34.85
2022-10-06T10:23:17.806Z,34.67
2022-10-06T10:25:55.394Z,33.32
2022-10-06T10:28:34.863Z,33.32
2022-10-06T10:31:33.481Z,32.79
2022-10-06T10:34:24.833Z,32.67
2022-10-06T10:36:54.678Z,33.23
2022-10-06T10:39:38.315Z,33.00
2022-10-06T10:42:15.394Z,34.60
2022-10-06T10:44:51.836Z,34.98
2022-10-06T10:47:30.786Z,32.91
2022-10-06T10:50:06.695Z,33.02
2022-10-06T10:52:41.494Z,32.57
2022-10-06T10:55:28.547Z,30.67
2022-10-06T10:58:15.009Z,30.68
2022-10-06T11:00:44.404Z,30.66
2022-10-06T11:03:11.920Z,30.55
2022-10-06T11:06:03.127Z,31.28
2022-10-06T11:08:38.614Z,30.99
2022-10-06T11:11:22.466Z,31.78
2022-10-06T11:13:52.801Z,31.96
2022-10-06T11:16:40.259Z,30.96
2022-10-06T11:19:27.681Z,29.72
2022-10-06T11:22:27.084Z,28.96
2022-10-06T11:25:05.079Z,27.94
2022-10-06T11:27:54.481Z,29.14
2022-10-06T11:30:27.020Z,31.04
2022-10-06T11:33:07.976Z,32.51
2022-10-06T11:35:39.497Z,34.38
2022-10-06T11:38:33.136Z,34.67
2022-10-06T11:41:11.740Z,35.56
2022-10-06T11:44:03.782Z,36.39
2022-10-06T11:46:49.518Z,36.72
2022-10-06T11:49:39.332Z,36.20
2022-10-06T11:52:08.338Z,34.95
2022-10-06T11:54:55.097Z,32.33
2022-10-06T11:57:29.636Z,31.34
2022-10-06T12:00:03.667Z,31.87
2022-10-06T12:02:33.985Z,32.09
2022-10-06T12:05:28.681Z,32.68
2022-10-06T12:07:56.765Z,31.60
2022-10-06T12:10:29.412Z,31.93
2022-10-06T12:14:01.671Z,31.63
2022-10-06T12:19:29.821Z,29.37
2022-10-06T12:22:12.373Z,29.81
2022-10-06T12:24:47.593Z,31.23
2022-10-06T12:27:23.371Z,31.44
2022-10-06T12:30:06.728Z,31.99
2022-10-06T12:32:52.706Z,33.38
2022-10-06T12:35:24.876Z,33.58
2022-10-06T12:37:54.747Z,34.44
2022-10-06T12:40:57.960Z,33.06
2022-10-06T12:43:32.553Z,31.54
2022-10-06T12:46:07.647Z,30.11
2022-10-06T12:48:50.175Z,30.14
2022-10-06T12:51:30.458Z,30.85
2022-10-06T12:54:10.172Z,31.76
2022-10-06T12:56:39.819Z,33.11
2022-10-06T12:59:29.174Z,32.98
2022-10-06T13:02:28.738Z,34.00
2022-10-06T13:05:11.087Z,34.55
2022-10-06T13:07:57.344Z,34.70
2022-10-06T13:10:25.100Z,33.77
2022-10-06T13:12:52.922Z,34.00
2022-10-06T13:15:29.726Z,33.84
2022-10-06T13:18:04.226Z,33.07
2022-10-06T13:21:04.138Z,33.14
2022-10-06T13:23:34.874Z,33.36
2022-10-06T13:26:14.714Z,33.73
2022-10-06T13:28:43.861Z,33.74
2022-10-06T13:31:35.239Z,33.29
2022-10-06T13:34:05.297Z,33.13
2022-10-06T13:36:35.413Z,32.06
2022-10-06T13:39:26.370Z,32.33
2022-10-06T13:42:03.489Z,32.10
2022-10-06T13:44:39.210Z,32.01
2022-10-06T13:47:19.225Z,31.40
2022-10-06T13:49:56.718Z,31.66
2022-10-06T13:52:49.061Z,31.21
2022-10-06T13:55:28.721Z,31.50
2022-10-06T13:58:03.566Z,30.87
2022-10-06T14:00:50.162Z,30.36
2022-10-06T14:06:19.245Z,30.14
2022-10-06T14:08:51.863Z,30.43
2022-10-06T14:11:24.783Z,29.85
2022-10-06T14:13:55.454Z,29.30
2022-10-06T14:16:24.762Z,28.99
2022-10-06T14:19:03.821Z,29.35
2022-10-06T14:21:41.493Z,29.46
2022-10-06T14:24:17.086Z,29.44
2022-10-06T14:26:45.631Z,29.14
2022-10-06T14:29:16.119Z,29.26
2022-10-06T14:31:43.754Z,28.81
2022-10-06T14:34:15.666Z,28.22
2022-10-06T14:36:55.033Z,27.86
2022-10-06T14:39:22.497Z,27.83
2022-10-06T14:41:49.231Z,27.26
2022-10-06T14:44:16.324Z,27.26
2022-10-06T14:46:48.076Z,26.28
2022-10-06T14:49:15.795Z,25.98
2022-10-06T14:51:44.071Z,25.65
2022-10-06T14:54:11.873Z,24.88
2022-10-06T14:56:40.174Z,24.48
2022-10-06T14:59:10.054Z,23.89
2022-10-06T15:01:40.144Z,23.15
2022-10-06T15:04:15.351Z,22.32
2022-10-06T15:07:01.122Z,21.82
2022-10-06T15:09:30.874Z,21.47
2022-10-06T15:11:58.508Z,21.25
2022-10-06T15:14:25.635Z,21.19
2022-10-06T15:16:52.582Z,21.08
2022-10-06T15:19:19.523Z,21.04
2022-10-06T15:21:46.394Z,21.13
2022-10-06T15:24:19.105Z,21.03
2022-10-06T15:27:05.678Z,20.98
2022-10-06T15:29:34.880Z,20.86
2022-10-06T15:32:03.690Z,20.84
2022-10-06T15:34:33.551Z,20.80
2022-10-06T15:37:01.013Z,21.14
2022-10-06T15:39:30.362Z,21.39
2022-10-06T15:41:58.092Z,21.04
2022-10-06T15:44:27.420Z,20.74
2022-10-06T15:46:56.029Z,20.35
2022-10-06T15:49:29.594Z,20.08
2022-10-06T15:51:59.432Z,19.87
2022-10-06T15:54:28.560Z,19.57
2022-10-06T15:56:59.399Z,19.37
2022-10-06T15:59:28.010Z,19.17
2022-10-06T16:01:57.977Z,19.00
2022-10-06T16:04:55.172Z,18.83
2022-10-06T16:07:21.879Z,18.58
2022-10-06T16:09:50.212Z,18.43
2022-10-06T16:12:20.510Z,18.25
2022-10-06T16:14:47.915Z,18.13
2022-10-06T16:17:15.244Z,18.01
2022-10-06T16:19:42.499Z,17.88
2022-10-06T16:22:12.277Z,17.69
2022-10-06T16:24:39.317Z,17.58
2022-10-06T16:27:07.363Z,17.49
2022-10-06T16:29:34.473Z,17.39
2022-10-06T16:32:01.548Z,17.22
2022-10-06T16:34:30.330Z,17.10
2022-10-06T16:36:58.055Z,16.97
2022-10-06T16:39:25.233Z,16.87
2022-10-06T16:41:52.664Z,16.78
2022-10-06T16:44:19.385Z,16.72
2022-10-06T16:46:46.942Z,16.61
2022-10-06T16:49:13.988Z,16.56
2022-10-06T16:51:43.346Z,16.43
2022-10-06T16:54:12.661Z,16.33
2022-10-06T16:56:42.450Z,16.24
2022-10-06T16:59:15.141Z,16.19
2022-10-06T17:01:42.576Z,16.12
2022-10-06T17:04:10.894Z,16.02
2022-10-06T17:06:40.122Z,15.98
2022-10-06T17:09:08.636Z,15.84
2022-10-06T17:11:36.111Z,15.76
2022-10-06T17:14:03.437Z,15.71
2022-10-06T17:16:34.257Z,15.69
2022-10-06T17:19:01.375Z,15.64
2022-10-06T17:21:45.465Z,15.55
2022-10-06T17:24:14.712Z,15.49
2022-10-06T17:26:42.982Z,15.45
2022-10-06T17:29:21.300Z,15.33
2022-10-06T17:31:50.713Z,15.29
2022-10-06T17:34:21.944Z,15.24
2022-10-06T17:36:52.123Z,15.11
2022-10-06T17:39:22.552Z,15.06
2022-10-06T17:41:51.954Z,15.00
2022-10-06T17:44:26.638Z,14.95
2022-10-06T17:46:57.255Z,14.95
2022-10-06T17:49:24.929Z,14.84
2022-10-06T17:51:54.745Z,14.78
2022-10-06T17:54:23.408Z,14.73
2022-10-06T17:56:52.524Z,14.68
2022-10-06T17:59:22.529Z,14.68
2022-10-06T18:01:51.346Z,14.67
2022-10-06T18:04:18.549Z,14.53
2022-10-06T18:06:46.611Z,14.56
2022-10-06T18:09:14.799Z,14.53
2022-10-06T18:11:44.024Z,14.49
2022-10-06T18:14:19.567Z,14.48
2022-10-06T18:16:56.231Z,14.41
2022-10-06T18:19:28.684Z,14.45
2022-10-06T18:21:58.813Z,14.39
2022-10-06T18:24:27.704Z,14.30
2022-10-06T18:26:56.702Z,14.27
2022-10-06T18:29:28.243Z,14.23
2022-10-06T18:32:01.339Z,14.20
2022-10-06T18:37:23.423Z,14.05
2022-10-06T18:39:50.255Z,13.99
2022-10-06T18:42:17.868Z,14.01
2022-10-06T18:45:03.156Z,13.99
2022-10-06T18:47:48.540Z,13.88
2022-10-06T18:50:15.529Z,13.81
2022-10-06T18:52:43.780Z,13.80
2022-10-06T18:55:10.648Z,13.82
2022-10-06T18:57:37.706Z,13.77
2022-10-06T19:00:04.900Z,13.68
2022-10-06T19:02:32.351Z,13.67
2022-10-06T19:04:59.240Z,13.62
2022-10-06T19:07:30.825Z,13.54
2022-10-06T19:09:57.522Z,13.60
2022-10-06T19:12:24.239Z,13.58
2022-10-06T19:14:53.726Z,13.56
2022-10-06T19:17:23.024Z,13.55
2022-10-06T19:19:55.244Z,13.54
2022-10-06T19:22:24.431Z,13.54
2022-10-06T19:24:52.407Z,13.46
2022-10-06T19:27:24.335Z,13.41
2022-10-06T19:29:54.216Z,13.43
2022-10-06T19:32:26.507Z,13.39
2022-10-06T19:34:58.022Z,13.35
2022-10-06T19:37:27.856Z,13.35
2022-10-06T19:39:54.531Z,13.42
2022-10-06T19:42:40.088Z,13.36
2022-10-06T19:45:08.600Z,13.30
2022-10-06T19:47:35.584Z,13.25
2022-10-06T19:50:08.799Z,13.20
2022-10-06T19:52:38.526Z,13.15
2022-10-06T19:55:05.573Z,13.11
2022-10-06T19:57:33.596Z,13.12
2022-10-06T20:00:00.651Z,13.13
2022-10-06T20:02:28.832Z,13.05
2022-10-06T20:04:56.581Z,13.02
2022-10-06T20:07:27.938Z,12.95
2022-10-06T20:09:55.814Z,13.00
2022-10-06T20:12:25.400Z,12.99
2022-10-06T20:14:53.692Z,12.96
2022-10-06T20:17:20.853Z,12.90
2022-10-06T20:19:48.172Z,12.86
2022-10-06T20:22:15.018Z,12.83
2022-10-06T20:24:42.061Z,12.77
2022-10-06T20:27:09.088Z,12.70
2022-10-06T20:29:36.154Z,12.71
2022-10-06T20:32:05.454Z,12.69
2022-10-06T20:34:35.241Z,12.64
2022-10-06T20:37:03.647Z,12.59
2022-10-06T20:39:53.766Z,12.58
2022-10-06T20:42:21.004Z,12.55
2022-10-06T20:44:48.451Z,12.55
2022-10-06T20:47:16.763Z,12.54
2022-10-06T20:49:44.456Z,12.52
2022-10-06T20:52:14.530Z,12.47
2022-10-06T20:54:42.466Z,12.40
2022-10-06T20:57:09.672Z,12.35
2022-10-06T20:59:37.851Z,12.36
2022-10-06T21:02:06.321Z,12.31
2022-10-06T21:04:34.451Z,12.27
2022-10-06T21:07:04.034Z,12.29
2022-10-06T21:09:30.939Z,12.25
2022-10-06T21:11:57.673Z,12.22
2022-10-06T21:14:25.342Z,12.20
2022-10-06T21:16:51.990Z,12.28
2022-10-06T21:19:19.556Z,12.26
2022-10-06T21:21:52.124Z,12.11
2022-10-06T21:24:19.572Z,12.05
2022-10-06T21:26:46.416Z,12.02
2022-10-06T21:29:15.503Z,12.02
2022-10-06T21:31:43.729Z,11.95
2022-10-06T21:34:10.984Z,11.93
2022-10-06T21:36:38.464Z,11.85
2022-10-06T21:39:07.132Z,11.77
2022-10-06T21:41:39.877Z,11.73
2022-10-06T21:44:13.690Z,11.72
2022-10-06T21:46:48.027Z,11.75
2022-10-06T21:49:17.965Z,11.76
2022-10-06T21:51:46.912Z,11.67
2022-10-06T21:54:14.705Z,11.61
2022-10-06T21:56:41.799Z,11.59
2022-10-06T21:59:09.328Z,11.58
2022-10-06T22:01:42.237Z,11.56
2022-10-06T22:04:11.876Z,11.54
2022-10-06T22:06:38.803Z,11.61
2022-10-06T22:09:07.481Z,11.52
2022-10-06T22:11:37.325Z,11.46
2022-10-06T22:14:06.668Z,11.42
2022-10-06T22:16:35.652Z,11.35
2022-10-06T22:19:04.638Z,11.34
2022-10-06T22:21:35.820Z,11.39
2022-10-06T22:24:14.710Z,11.45
2022-10-06T22:26:42.953Z,11.38
2022-10-06T22:29:12.627Z,11.41
2022-10-06T22:31:41.541Z,11.41
2022-10-06T22:34:11.244Z,11.42
2022-10-06T22:36:38.129Z,11.35
2022-10-06T22:39:05.587Z,11.32
2022-10-06T22:41:32.602Z,11.20
2022-10-06T22:44:00.195Z,11.17
2022-10-06T22:46:29.845Z,11.20
2022-10-06T22:48:56.712Z,11.16
2022-10-06T22:51:23.918Z,11.10
2022-10-06T22:53:58.144Z,11.04
2022-10-06T22:56:31.637Z,11.00
2022-10-06T22:59:00.137Z,11.03
2022-10-06T23:01:29.533Z,10.98
2022-10-06T23:03:56.893Z,10.95
2022-10-06T23:06:24.682Z,10.90
2022-10-06T23:08:52.131Z,10.88
2022-10-06T23:11:20.497Z,10.85
2022-10-06T23:13:48.561Z,10.83
2022-10-06T23:16:17.213Z,10.79
2022-10-06T23:18:45.145Z,10.77
2022-10-06T23:21:21.667Z,10.81
2022-10-06T23:23:51.670Z,10.78
2022-10-06T23:26:19.330Z,10.73
2022-10-06T23:28:50.307Z,10.73
2022-10-06T23:31:17.641Z,10.67
2022-10-06T23:33:44.332Z,10.65
2022-10-06T23:36:12.448Z,10.64
2022-10-06T23:38:39.646Z,10.65
2022-10-06T23:41:07.174Z,10.67
2022-10-06T23:43:34.740Z,10.62
2022-10-06T23:46:02.170Z,10.61
2022-10-06T23:48:29.601Z,10.61
2022-10-06T23:50:56.383Z,10.54
2022-10-06T23:53:23.974Z,10.51
2022-10-06T23:55:50.652Z,10.51
2022-10-06T23:58:20.674Z,10.45
